Austin, TX (78780)

4:56 PM CDT on April 26, 2015 (GMT -0500)
Stratford Hills | | Change Station
CLOSE
Current Station
Personal Weather Station
Location: Austin, TX
Elevation: 594 ft
Nearby Weather Stations

Elev 594 ft 30.29 °N, 97.79 °W | Updated 11 seconds ago

Mostly Cloudy
Mostly Cloudy
84.6 °F
Feels Like 87 °F
N
8.3
Wind Variable Wind from SSE
Gusts 9.8 mph

Today
High -- | Low -- °F
--% Chance of Precip.
Yesterday
High -- | Low -- °F
Precip. -- in
6:52 AM 8:05 PM
First Quarter, 59% visible
Pressure 29.54 in
Visibility 10.0 miles
Clouds Few 4000 ft
Heat Index 87 °F
Dew Point 66 °F
Humidity 54%
Rainfall 0.00 in
Snow Depth Not available.
UV 5 out of 12
Pollen 8.20 out of 12
Air Quality Not available.
Flu Activity Local Activity
METAR KATT 262151Z AUTO 16012G21KT 10SM FEW040 28/20 A2958 RMK AO2 SLP003 T02830200 $

More Conditions Fewer Conditions

Pressure 29.54 in
Visibility 10.0 miles
Clouds Few 4000 ft
Heat Index 87 °F
Dew Point 66 °F
Humidity 54%
Rainfall 0.00 in
Snow Depth Not available.
UV 5 out of 12
Pollen 8.20 out of 12
Air Quality Not available.
Flu Activity Local Activity
METAR KATT 262151Z AUTO 16012G21KT 10SM FEW040 28/20 A2958 RMK AO2 SLP003 T02830200 $

More Conditions Fewer Conditions

The full scope of the disaster following a powerful 7.8-magnitude earthquake in Nepal may not come into view for days, but global charities are already sending emergency aid. Click to see how you can help.

10-Day Weather Forecast

Almanac

Astronomy

Apr. 26, 2015 Rise Set
Actual Time
Civil Twilight
Nautical Twilight
Astronomical Twilight
Moon
Length of Visible Light
Length of Day
Tomorrow will be .
, % of the Moon is Illuminated

Today's Extremes

State Highs State Lows

Community

WunderPhotos

Upload Photos

1,817,132 photos uploaded!

WunderBlogs® & News

Nearby

Air Quality

  Air Quality AQ Index Pollutant
Not available.

Snow Depth

Station Depth Elevation

Earthquake Activity

City Distance Mag. Time & Date
Minimum magnitude displayed is 2.5.

Coastal Water Temperatures

Place Temperature

Stations

Nearby Weather Stations

Station Location Temp. Windchill Dew Point Humidity Wind Precip. Elev Updated Type